Time;durP1;ratioP1;P1;durP2;ratioP2;P2;SDS_P1;SDS_P2;PMS_P1;PMS_P2;Temp;Humidity;BMP_temperature;BMP_pressure;BME280_temperature;BME280_humidity;BME280_pressure;Samples;Min_cycle;Max_cycle;Signal;HPM_P1;HPM_P2
2023/02/14 00:00:09;;;;;;;41.10;18.52;;;;;;;;;;5092443;28;20139;-51
2023/02/14 00:02:36;;;;;;;41.90;18.98;;;;;;;;;;5096941;28;20504;-54
2023/02/14 00:05:02;;;;;;;40.17;18.17;;;;;;;;;;5110847;28;20411;-51
2023/02/14 00:07:31;;;;;;;41.97;18.92;;;;;;;;;;5092166;28;20051;-50
2023/02/14 00:09:58;;;;;;;39.95;17.60;;;;;;;;;;5092142;28;20044;-49
2023/02/14 00:12:26;;;;;;;49.60;18.92;;;;;;;;;;5092076;28;20527;-54
2023/02/14 00:17:36;;;;;;;39.83;18.50;;;;;;;;;;5092414;28;20075;-54
2023/02/14 00:20:04;;;;;;;40.42;18.15;;;;;;;;;;5092316;28;20119;-56
2023/02/14 00:22:30;;;;;;;41.72;19.42;;;;;;;;;;5094818;28;20101;-52
2023/02/14 00:24:57;;;;;;;38.05;18.30;;;;;;;;;;5112531;28;20485;-51
2023/02/14 00:27:26;;;;;;;40.95;18.23;;;;;;;;;;5094787;28;20052;-53
2023/02/14 00:29:53;;;;;;;39.67;18.77;;;;;;;;;;5092037;28;20056;-52
2023/02/14 00:32:20;;;;;;;38.50;18.00;;;;;;;;;;5091986;28;20053;-53
2023/02/14 00:34:47;;;;;;;39.70;18.02;;;;;;;;;;5092022;28;20048;-51
2023/02/14 00:37:14;;;;;;;38.20;17.40;;;;;;;;;;5091885;28;20044;-54
2023/02/14 00:39:40;;;;;;;38.53;16.92;;;;;;;;;;5092117;28;20056;-50
2023/02/14 00:42:07;;;;;;;37.20;18.65;;;;;;;;;;5091590;28;20501;-54
2023/02/14 00:44:36;;;;;;;37.00;16.50;;;;;;;;;;5071869;28;20060;-55
2023/02/14 00:47:03;;;;;;;33.85;16.80;;;;;;;;;;5071646;28;20052;-51
2023/02/14 00:49:30;;;;;;;39.53;18.00;;;;;;;;;;5071651;28;20102;-53
2023/02/14 00:51:57;;;;;;;35.88;17.15;;;;;;;;;;5079466;28;20039;-50
2023/02/14 00:54:24;;;;;;;37.50;17.38;;;;;;;;;;5112222;28;20052;-53
2023/02/14 00:56:50;;;;;;;36.08;17.42;;;;;;;;;;5111996;28;20047;-49
2023/02/14 00:59:17;;;;;;;33.05;15.75;;;;;;;;;;5112242;28;20055;-51
2023/02/14 01:01:46;;;;;;;41.53;17.60;;;;;;;;;;5111944;28;20047;-50
2023/02/14 01:04:12;;;;;;;38.15;17.98;;;;;;;;;;5101330;28;20085;-52
2023/02/14 01:06:39;;;;;;;34.80;16.48;;;;;;;;;;5091727;28;20125;-54
2023/02/14 01:09:06;;;;;;;33.45;16.33;;;;;;;;;;5092956;28;20052;-52
2023/02/14 01:11:33;;;;;;;36.05;16.95;;;;;;;;;;5092640;28;20048;-52
2023/02/14 01:14:00;;;;;;;34.88;17.13;;;;;;;;;;5095521;28;20059;-53
2023/02/14 01:16:28;;;;;;;35.38;17.38;;;;;;;;;;5095529;28;20044;-51
2023/02/14 01:18:58;;;;;;;35.80;15.77;;;;;;;;;;5095315;28;20044;-53
2023/02/14 01:21:27;;;;;;;27.80;14.07;;;;;;;;;;5095505;28;20047;-51
2023/02/14 01:23:58;;;;;;;32.92;15.43;;;;;;;;;;5095021;28;20044;-56
2023/02/14 01:26:26;;;;;;;35.28;15.75;;;;;;;;;;5095792;28;20397;-53
2023/02/14 01:28:52;;;;;;;34.88;15.07;;;;;;;;;;5102502;28;20484;-51
2023/02/14 01:31:22;;;;;;;29.45;14.88;;;;;;;;;;5115623;28;20124;-51
2023/02/14 01:33:49;;;;;;;35.10;15.73;;;;;;;;;;5115430;28;20055;-53
2023/02/14 01:36:20;;;;;;;32.40;14.88;;;;;;;;;;5115534;28;20556;-50
2023/02/14 01:38:47;;;;;;;31.38;15.30;;;;;;;;;;5109422;28;20461;-51
2023/02/14 01:41:14;;;;;;;33.95;15.75;;;;;;;;;;5095046;28;20048;-48
2023/02/14 01:43:53;;;;;;;33.40;15.60;;;;;;;;;;5094758;28;20048;-50
2023/02/14 01:46:20;;;;;;;30.55;14.93;;;;;;;;;;5095098;28;20404;-51
2023/02/14 01:48:47;;;;;;;32.78;15.45;;;;;;;;;;5095187;28;20109;-53
2023/02/14 01:51:16;;;;;;;32.65;15.35;;;;;;;;;;5100353;28;20124;-54
2023/02/14 01:53:45;;;;;;;35.65;16.38;;;;;;;;;;5099709;28;20055;-51
2023/02/14 01:56:17;;;;;;;37.90;17.35;;;;;;;;;;5102354;28;20043;-50
2023/02/14 01:58:47;;;;;;;31.70;15.48;;;;;;;;;;5115031;28;20043;-50
2023/02/14 02:01:16;;;;;;;31.27;14.52;;;;;;;;;;5115225;28;20066;-53
2023/02/14 02:03:46;;;;;;;34.63;15.10;;;;;;;;;;5114876;28;20048;-53
2023/02/14 02:06:16;;;;;;;29.08;14.10;;;;;;;;;;5114966;28;20082;-53
2023/02/14 02:08:52;;;;;;;25.83;14.43;;;;;;;;;;5114494;28;20096;-51
2023/02/14 02:11:18;;;;;;;32.88;15.07;;;;;;;;;;5112797;28;20466;-51
2023/02/14 02:13:45;;;;;;;28.88;14.23;;;;;;;;;;5114560;28;20484;-53
2023/02/14 02:16:31;;;;;;;27.80;14.07;;;;;;;;;;5114756;28;20043;-51
2023/02/14 02:19:12;;;;;;;28.60;13.73;;;;;;;;;;5114689;28;20043;-54
2023/02/14 02:22:08;;;;;;;27.42;13.70;;;;;;;;;;5106023;28;20540;-51
2023/02/14 02:24:47;;;;;;;30.40;14.63;;;;;;;;;;5081933;28;20098;-52
2023/02/14 02:27:25;;;;;;;33.85;16.27;;;;;;;;;;5098852;28;20073;-54
2023/02/14 02:30:25;;;;;;;29.80;13.88;;;;;;;;;;5094019;28;20052;-51
2023/02/14 02:33:45;;;;;;;32.47;15.60;;;;;;;;;;5101714;28;20516;-54
2023/02/14 02:36:25;;;;;;;31.02;15.27;;;;;;;;;;5093934;28;20040;-50
2023/02/14 02:39:12;;;;;;;28.17;13.45;;;;;;;;;;5093527;28;20048;-53
2023/02/14 02:41:48;;;;;;;29.58;15.52;;;;;;;;;;5098446;28;20048;-53
2023/02/14 02:44:18;;;;;;;29.70;14.80;;;;;;;;;;5093600;28;20504;-51
2023/02/14 02:46:53;;;;;;;28.83;14.75;;;;;;;;;;5093727;28;20052;-51
2023/02/14 02:55:20;;;;;;;31.50;14.60;;;;;;;;;;5093750;28;20173;-52
2023/02/14 02:57:48;;;;;;;31.08;14.23;;;;;;;;;;5073446;28;20044;-53
2023/02/14 03:00:15;;;;;;;29.92;14.70;;;;;;;;;;5073309;28;20052;-54
2023/02/14 03:05:33;;;;;;;27.35;14.32;;;;;;;;;;5093445;28;20101;-50
2023/02/14 03:08:01;;;;;;;29.15;14.43;;;;;;;;;;5093156;28;20044;-52
2023/02/14 03:10:32;;;;;;;28.63;14.40;;;;;;;;;;5093354;28;20117;-48
2023/02/14 03:13:31;;;;;;;25.92;13.30;;;;;;;;;;5093871;28;20047;-54
2023/02/14 03:16:32;;;;;;;26.17;12.93;;;;;;;;;;5113404;28;20054;-51
2023/02/14 03:22:11;;;;;;;27.10;13.13;;;;;;;;;;5110209;28;20245;-51
2023/02/14 03:24:47;;;;;;;27.83;13.05;;;;;;;;;;5093401;28;20058;-51
2023/02/14 03:27:21;;;;;;;24.73;13.30;;;;;;;;;;5109256;28;20393;-52
2023/02/14 03:29:57;;;;;;;26.42;13.02;;;;;;;;;;5113244;28;20044;-55
2023/02/14 03:32:31;;;;;;;27.63;13.20;;;;;;;;;;5113395;28;20048;-54
2023/02/14 03:35:06;;;;;;;29.92;13.75;;;;;;;;;;5112587;28;20465;-53
2023/02/14 03:37:40;;;;;;;28.38;13.82;;;;;;;;;;5113249;28;20075;-53
2023/02/14 03:40:10;;;;;;;27.10;13.32;;;;;;;;;;5113064;28;20051;-52
2023/02/14 03:42:43;;;;;;;27.80;13.88;;;;;;;;;;5107553;28;20389;-51
2023/02/14 03:45:16;;;;;;;30.10;14.95;;;;;;;;;;5095618;28;20098;-54
2023/02/14 03:47:45;;;;;;;33.13;14.73;;;;;;;;;;5113473;28;20040;-52
2023/02/14 03:50:16;;;;;;;29.25;14.40;;;;;;;;;;5113089;28;20063;-54
2023/02/14 03:52:45;;;;;;;32.90;14.93;;;;;;;;;;5112805;28;20048;-54
2023/02/14 03:55:16;;;;;;;30.67;14.30;;;;;;;;;;5104856;28;20044;-52
2023/02/14 03:57:49;;;;;;;27.05;13.93;;;;;;;;;;5104021;28;20052;-50
2023/02/14 04:00:17;;;;;;;28.95;14.00;;;;;;;;;;5113165;28;20068;-49
2023/02/14 04:02:47;;;;;;;28.63;13.82;;;;;;;;;;5112766;28;20401;-50
2023/02/14 04:05:18;;;;;;;27.25;12.98;;;;;;;;;;5108464;28;20052;-48
2023/02/14 04:07:47;;;;;;;27.52;13.82;;;;;;;;;;5092506;28;20047;-51
2023/02/14 04:10:15;;;;;;;29.23;13.07;;;;;;;;;;5104661;22;20047;-73
2023/02/14 04:12:42;;;;;;;30.00;13.80;;;;;;;;;;5071390;28;20059;-71
2023/02/14 04:15:09;;;;;;;34.65;14.60;;;;;;;;;;5074109;28;20080;-73
2023/02/14 04:20:20;;;;;;;30.38;13.68;;;;;;;;;;5074302;28;20106;-73
2023/02/14 04:22:47;;;;;;;30.25;14.15;;;;;;;;;;5074513;28;20074;-72
2023/02/14 04:25:15;;;;;;;26.38;13.43;;;;;;;;;;5073897;28;20098;-72
2023/02/14 04:27:41;;;;;;;25.95;13.65;;;;;;;;;;5085912;28;20058;-73
2023/02/14 04:30:11;;;;;;;25.15;12.85;;;;;;;;;;5082338;28;20044;-71
2023/02/14 04:32:38;;;;;;;30.38;14.73;;;;;;;;;;5073660;28;20056;-73
2023/02/14 04:35:05;;;;;;;28.05;14.18;;;;;;;;;;5074320;28;20048;-73
2023/02/14 04:37:32;;;;;;;32.03;14.93;;;;;;;;;;5085227;28;20049;-73
2023/02/14 04:39:58;;;;;;;31.55;14.32;;;;;;;;;;5076501;28;20047;-73
2023/02/14 04:42:26;;;;;;;30.05;14.93;;;;;;;;;;5073793;28;20040;-73
2023/02/14 04:44:53;;;;;;;32.17;15.38;;;;;;;;;;5074198;28;20059;-74
2023/02/14 04:47:19;;;;;;;34.85;15.20;;;;;;;;;;5078251;28;20044;-73
2023/02/14 04:49:46;;;;;;;34.72;16.10;;;;;;;;;;5084176;28;20144;-73
2023/02/14 04:52:12;;;;;;;33.80;14.70;;;;;;;;;;5077810;28;20050;-73
2023/02/14 04:54:39;;;;;;;33.45;15.27;;;;;;;;;;5078241;28;20052;-72
2023/02/14 04:57:06;;;;;;;30.58;14.98;;;;;;;;;;5082046;28;20419;-72
2023/02/14 04:59:33;;;;;;;32.13;15.23;;;;;;;;;;5077993;28;20040;-72
2023/02/14 05:02:00;;;;;;;29.90;14.27;;;;;;;;;;5078036;28;20048;-74
2023/02/14 05:04:27;;;;;;;28.33;14.07;;;;;;;;;;5077942;28;20049;-72
2023/02/14 05:06:53;;;;;;;28.65;13.35;;;;;;;;;;5079169;28;20052;-72
2023/02/14 05:09:20;;;;;;;28.38;14.80;;;;;;;;;;5098430;28;20044;-71
2023/02/14 05:11:46;;;;;;;30.15;13.10;;;;;;;;;;5097866;28;20079;-73
2023/02/14 05:14:13;;;;;;;32.25;13.63;;;;;;;;;;5098096;28;20048;-71
2023/02/14 05:16:41;;;;;;;29.65;13.70;;;;;;;;;;5094210;28;20067;-72
2023/02/14 05:19:08;;;;;;;24.17;12.85;;;;;;;;;;5094857;28;20048;-72
2023/02/14 05:21:34;;;;;;;29.45;15.13;;;;;;;;;;5098224;28;20130;-71
2023/02/14 05:24:01;;;;;;;29.60;13.65;;;;;;;;;;5097863;28;20491;-73
2023/02/14 05:26:28;;;;;;;27.08;12.95;;;;;;;;;;5088317;28;20050;-73
2023/02/14 05:28:55;;;;;;;25.83;14.02;;;;;;;;;;5085673;28;20097;-73
2023/02/14 05:31:22;;;;;;;32.05;15.10;;;;;;;;;;5077517;28;20510;-73
2023/02/14 05:33:50;;;;;;;31.25;14.35;;;;;;;;;;5077353;28;20419;-73
2023/02/14 05:36:17;;;;;;;29.40;14.45;;;;;;;;;;5078435;28;20045;-72
2023/02/14 05:38:43;;;;;;;29.33;14.10;;;;;;;;;;5083679;28;20046;-73
2023/02/14 05:41:10;;;;;;;34.00;15.05;;;;;;;;;;5097006;28;20044;-73
2023/02/14 05:43:36;;;;;;;29.95;14.25;;;;;;;;;;5097076;28;20044;-74
2023/02/14 05:46:03;;;;;;;31.30;14.88;;;;;;;;;;5096985;28;20054;-73
2023/02/14 05:48:29;;;;;;;30.92;14.20;;;;;;;;;;5096171;28;20518;-73
2023/02/14 05:50:57;;;;;;;25.25;13.63;;;;;;;;;;5076720;28;20410;-73
2023/02/14 05:53:24;;;;;;;28.27;13.85;;;;;;;;;;5076854;28;20058;-73
2023/02/14 05:55:50;;;;;;;28.80;14.38;;;;;;;;;;5081136;28;20040;-74
2023/02/14 05:58:17;;;;;;;35.08;15.18;;;;;;;;;;5095781;28;20594;-74
2023/02/14 06:00:43;;;;;;;33.72;15.35;;;;;;;;;;5080868;28;20056;-73
2023/02/14 06:03:10;;;;;;;33.45;15.23;;;;;;;;;;5075681;28;20044;-73
2023/02/14 06:05:37;;;;;;;30.98;14.52;;;;;;;;;;5075442;28;20406;-73
2023/02/14 06:08:04;;;;;;;36.05;16.55;;;;;;;;;;5076216;28;20051;-74
2023/02/14 06:10:31;;;;;;;32.28;14.98;;;;;;;;;;5089227;28;20048;-73
2023/02/14 06:12:58;;;;;;;36.45;17.00;;;;;;;;;;5096584;28;20048;-74
2023/02/14 06:15:24;;;;;;;34.70;16.38;;;;;;;;;;5096457;28;20048;-74
2023/02/14 06:17:52;;;;;;;35.42;16.90;;;;;;;;;;5096804;28;20047;-73
2023/02/14 06:20:20;;;;;;;38.50;16.70;;;;;;;;;;5088509;28;20048;-73
2023/02/14 06:22:46;;;;;;;34.17;16.45;;;;;;;;;;5097399;28;20052;-72
2023/02/14 06:25:14;;;;;;;37.70;16.65;;;;;;;;;;5098058;28;20048;-73
2023/02/14 06:27:41;;;;;;;36.08;17.38;;;;;;;;;;5096596;28;20510;-74
2023/02/14 06:30:09;;;;;;;38.10;16.40;;;;;;;;;;5096750;28;20116;-71
2023/02/14 06:32:35;;;;;;;37.03;16.35;;;;;;;;;;5077584;28;20127;-73
2023/02/14 06:35:03;;;;;;;35.50;15.02;;;;;;;;;;5077656;28;20044;-73
2023/02/14 06:37:29;;;;;;;35.15;15.52;;;;;;;;;;5076260;28;20491;-73
2023/02/14 06:39:56;;;;;;;28.92;14.73;;;;;;;;;;5078530;28;21302;-72
2023/02/14 06:42:24;;;;;;;33.05;15.25;;;;;;;;;;5081435;28;20423;-73
2023/02/14 06:44:51;;;;;;;35.50;15.68;;;;;;;;;;5076119;28;20053;-73
2023/02/14 06:47:17;;;;;;;36.60;16.90;;;;;;;;;;5075953;28;20044;-72
2023/02/14 06:49:44;;;;;;;35.25;15.93;;;;;;;;;;5075920;28;20131;-73
2023/02/14 06:52:11;;;;;;;35.95;16.25;;;;;;;;;;5092116;28;20055;-72
2023/02/14 06:54:38;;;;;;;33.35;14.57;;;;;;;;;;5096220;28;20046;-73
2023/02/14 06:57:04;;;;;;;38.75;16.90;;;;;;;;;;5096584;28;20048;-72
2023/02/14 06:59:32;;;;;;;35.58;16.67;;;;;;;;;;5095917;28;20050;-73
2023/02/14 07:01:59;;;;;;;32.67;15.15;;;;;;;;;;5083472;28;20218;-73
2023/02/14 07:04:25;;;;;;;35.35;16.67;;;;;;;;;;5076690;28;20457;-73
2023/02/14 07:06:52;;;;;;;37.97;15.55;;;;;;;;;;5073631;28;20419;-72
2023/02/14 07:09:19;;;;;;;33.90;16.08;;;;;;;;;;5072489;28;20045;-72
2023/02/14 07:11:46;;;;;;;34.47;15.57;;;;;;;;;;5075483;28;20068;-72
2023/02/14 07:14:13;;;;;;;33.05;15.95;;;;;;;;;;5076218;28;20054;-72
2023/02/14 07:16:41;;;;;;;32.25;15.57;;;;;;;;;;5080732;28;20531;-72
2023/02/14 07:19:07;;;;;;;31.77;15.63;;;;;;;;;;5074443;28;20049;-73
2023/02/14 07:21:34;;;;;;;33.95;15.80;;;;;;;;;;5074123;28;20048;-72
2023/02/14 07:24:00;;;;;;;35.17;16.52;;;;;;;;;;5074716;28;20050;-71
2023/02/14 07:26:27;;;;;;;33.67;15.25;;;;;;;;;;5078120;28;20044;-72
2023/02/14 07:28:54;;;;;;;30.08;14.98;;;;;;;;;;5074257;28;20198;-72
2023/02/14 07:31:22;;;;;;;34.05;14.65;;;;;;;;;;5073532;28;20128;-72
2023/02/14 07:33:50;;;;;;;34.15;15.00;;;;;;;;;;5073588;28;20066;-72
2023/02/14 07:36:17;;;;;;;34.45;14.77;;;;;;;;;;5065980;28;20061;-73
2023/02/14 07:38:44;;;;;;;30.92;14.50;;;;;;;;;;5053562;28;20045;-72
2023/02/14 07:41:11;;;;;;;30.17;14.95;;;;;;;;;;5063284;28;20076;-72
2023/02/14 07:43:38;;;;;;;32.97;14.20;;;;;;;;;;5074382;28;20040;-72
2023/02/14 07:46:05;;;;;;;32.25;15.75;;;;;;;;;;5081031;28;20059;-74
2023/02/14 07:48:32;;;;;;;34.13;16.45;;;;;;;;;;5092604;28;20495;-71
2023/02/14 07:51:00;;;;;;;34.28;14.90;;;;;;;;;;5077427;28;20095;-73
2023/02/14 07:53:26;;;;;;;30.23;14.55;;;;;;;;;;5068667;28;20124;-73
2023/02/14 07:55:53;;;;;;;33.40;14.82;;;;;;;;;;5072896;28;20084;-74
2023/02/14 07:58:20;;;;;;;30.60;14.18;;;;;;;;;;5074157;28;20056;-72
2023/02/14 08:00:46;;;;;;;30.77;14.48;;;;;;;;;;5073680;28;20040;-74
2023/02/14 08:03:14;;;;;;;28.33;14.25;;;;;;;;;;5066424;28;20487;-74
2023/02/14 08:05:41;;;;;;;33.22;14.65;;;;;;;;;;5078482;28;20522;-74
2023/02/14 08:08:09;;;;;;;34.70;14.68;;;;;;;;;;5091222;28;20048;-74
2023/02/14 08:10:35;;;;;;;29.90;15.10;;;;;;;;;;5091882;28;20050;-74
2023/02/14 08:13:02;;;;;;;34.35;14.98;;;;;;;;;;5091309;28;20050;-74
2023/02/14 08:18:16;;;;;;;33.63;15.30;;;;;;;;;;5088644;28;20059;-74
2023/02/14 08:20:43;;;;;;;32.63;15.13;;;;;;;;;;5071921;28;20052;-73
2023/02/14 08:23:12;;;;;;;26.95;13.80;;;;;;;;;;5070943;28;20418;-74
2023/02/14 08:25:39;;;;;;;34.53;15.43;;;;;;;;;;5079572;28;20076;-74
2023/02/14 08:28:06;;;;;;;35.03;15.23;;;;;;;;;;5085454;28;20052;-76
2023/02/14 08:30:36;;;;;;;30.77;14.77;;;;;;;;;;5081901;28;20517;-80
2023/02/14 08:33:03;;;;;;;40.72;16.63;;;;;;;;;;5072790;28;20725;-73
2023/02/14 08:35:30;;;;;;;28.67;14.48;;;;;;;;;;5081721;28;20148;-74
2023/02/14 08:37:56;;;;;;;39.38;16.80;;;;;;;;;;5063042;28;20041;-74
2023/02/14 08:40:24;;;;;;;34.40;16.35;;;;;;;;;;5067783;28;20705;-74
2023/02/14 08:42:52;;;;;;;32.58;16.25;;;;;;;;;;5069761;28;20052;-75
2023/02/14 08:45:18;;;;;;;33.05;16.38;;;;;;;;;;5070181;28;20131;-74
2023/02/14 08:47:45;;;;;;;35.65;16.63;;;;;;;;;;5070380;28;20135;-74
2023/02/14 08:50:14;;;;;;;38.58;17.70;;;;;;;;;;5070771;28;20128;-74
2023/02/14 08:52:42;;;;;;;35.67;16.50;;;;;;;;;;5069481;28;20044;-74
2023/02/14 08:55:10;;;;;;;35.90;17.08;;;;;;;;;;5070078;28;20057;-74
2023/02/14 08:57:38;;;;;;;37.33;15.70;;;;;;;;;;5069925;28;20048;-74
2023/02/14 09:00:09;;;;;;;32.55;16.25;;;;;;;;;;5061964;28;20439;-75
2023/02/14 09:02:35;;;;;;;31.38;14.77;;;;;;;;;;5055917;28;20087;-74
2023/02/14 09:05:02;;;;;;;35.28;16.27;;;;;;;;;;5069493;28;20104;-73
2023/02/14 09:07:29;;;;;;;32.45;14.65;;;;;;;;;;5067084;28;20566;-74
2023/02/14 09:09:55;;;;;;;34.95;15.48;;;;;;;;;;5061323;28;20062;-74
2023/02/14 09:12:22;;;;;;;33.33;16.27;;;;;;;;;;5075291;28;20149;-74
2023/02/14 09:14:50;;;;;;;34.03;15.60;;;;;;;;;;5078196;28;20053;-72
2023/02/14 09:17:17;;;;;;;38.92;17.88;;;;;;;;;;5069901;28;20052;-74
2023/02/14 09:19:43;;;;;;;34.67;16.90;;;;;;;;;;5069452;28;20040;-74
2023/02/14 09:22:11;;;;;;;34.42;15.48;;;;;;;;;;5069257;28;20053;-75
2023/02/14 09:24:40;;;;;;;35.10;17.15;;;;;;;;;;5072317;28;20075;-74
2023/02/14 09:27:07;;;;;;;36.95;17.58;;;;;;;;;;5068766;28;20056;-74
2023/02/14 09:29:34;;;;;;;38.50;17.20;;;;;;;;;;5070001;28;20044;-74
2023/02/14 09:32:03;;;;;;;36.55;17.63;;;;;;;;;;5069222;28;20656;-74
2023/02/14 09:34:31;;;;;;;39.97;17.65;;;;;;;;;;5073528;28;20091;-74
2023/02/14 09:36:57;;;;;;;40.85;17.30;;;;;;;;;;5059867;28;20043;-75
2023/02/14 09:39:24;;;;;;;35.83;17.33;;;;;;;;;;5086281;28;20039;-74
2023/02/14 09:42:02;;;;;;;36.10;16.73;;;;;;;;;;5076880;28;20594;-74
2023/02/14 09:44:34;;;;;;;38.25;17.95;;;;;;;;;;5077563;28;20123;-74
2023/02/14 09:47:07;;;;;;;33.28;15.30;;;;;;;;;;5073320;28;20037;-74
2023/02/14 09:49:38;;;;;;;33.55;15.65;;;;;;;;;;5065947;28;20048;-74
2023/02/14 09:52:07;;;;;;;41.22;17.75;;;;;;;;;;5068082;28;20052;-74
2023/02/14 09:54:35;;;;;;;36.20;17.42;;;;;;;;;;5083781;28;20044;-73
2023/02/14 09:57:11;;;;;;;34.40;17.55;;;;;;;;;;5073239;28;20525;-74
2023/02/14 09:59:47;;;;;;;37.63;16.80;;;;;;;;;;5081229;28;20102;-76
2023/02/14 10:02:36;;;;;;;39.22;18.38;;;;;;;;;;5072989;28;20541;-74
2023/02/14 10:05:09;;;;;;;36.38;15.98;;;;;;;;;;5074151;28;20044;-74
2023/02/14 10:07:47;;;;;;;38.67;16.73;;;;;;;;;;5072886;28;20751;-75
2023/02/14 10:10:17;;;;;;;38.47;16.73;;;;;;;;;;5081634;28;20054;-75
2023/02/14 10:12:46;;;;;;;;;;;;;;;;;;5092898;28;20151;-76
2023/02/14 10:15:19;;;;;;;37.00;15.73;;;;;;;;;;5073823;28;19946;-73
2023/02/14 10:17:52;;;;;;;34.35;14.93;;;;;;;;;;5072691;28;20055;-74
2023/02/14 10:20:25;;;;;;;41.45;16.77;;;;;;;;;;5073703;28;20045;-74
2023/02/14 10:22:59;;;;;;;39.67;17.48;;;;;;;;;;5072082;28;20088;-74
2023/02/14 10:25:30;;;;;;;33.30;15.65;;;;;;;;;;5072183;28;20107;-74
2023/02/14 10:27:58;;;;;;;37.50;17.27;;;;;;;;;;5072425;28;20527;-73
2023/02/14 10:30:25;;;;;;;41.60;18.83;;;;;;;;;;5072273;28;20132;-73
2023/02/14 10:32:59;;;;;;;44.50;18.92;;;;;;;;;;5071848;28;20074;-74
2023/02/14 10:35:33;;;;;;;40.58;19.50;;;;;;;;;;5072143;28;20076;-74
2023/02/14 10:38:08;;;;;;;36.40;16.70;;;;;;;;;;5072366;28;20048;-74
2023/02/14 10:40:48;;;;;;;37.55;17.40;;;;;;;;;;5072957;28;20045;-74
2023/02/14 10:43:23;;;;;;;33.88;16.83;;;;;;;;;;5072690;28;20111;-73
2023/02/14 10:46:01;;;;;;;36.55;15.98;;;;;;;;;;5075939;28;20075;-73
2023/02/14 10:48:42;;;;;;;39.72;15.77;;;;;;;;;;5072412;28;20045;-74
2023/02/14 10:51:15;;;;;;;39.50;17.77;;;;;;;;;;5074320;28;20284;-74
2023/02/14 10:53:49;;;;;;;33.97;15.70;;;;;;;;;;5085979;28;20041;-72
2023/02/14 10:56:20;;;;;;;36.17;15.48;;;;;;;;;;5073355;28;20415;-74
2023/02/14 10:58:52;;;;;;;35.75;16.33;;;;;;;;;;5071457;28;20095;-74
2023/02/14 11:01:19;;;;;;;39.85;18.15;;;;;;;;;;5071226;28;20047;-74
2023/02/14 11:03:53;;;;;;;37.00;18.65;;;;;;;;;;5077934;28;20048;-75
2023/02/14 11:06:19;;;;;;;36.83;17.35;;;;;;;;;;5068220;28;20047;-77
2023/02/14 11:08:46;;;;;;;35.40;16.77;;;;;;;;;;5056704;28;20052;-76
2023/02/14 11:11:20;;;;;;;37.22;17.20;;;;;;;;;;5062703;28;20135;-79
2023/02/14 11:13:47;;;;;;;36.90;18.02;;;;;;;;;;5082671;28;20044;-80
2023/02/14 11:16:29;;;;;;;37.47;17.50;;;;;;;;;;5104992;28;20052;-76
2023/02/14 11:19:09;;;;;;;33.85;16.17;;;;;;;;;;5102678;28;20048;-78
2023/02/14 11:21:38;;;;;;;36.92;16.98;;;;;;;;;;5078797;28;20025;-75
2023/02/14 11:24:17;;;;;;;35.50;16.60;;;;;;;;;;5070290;28;20060;-77
2023/02/14 11:26:46;;;;;;;36.05;16.30;;;;;;;;;;5082549;28;20437;-77
2023/02/14 11:29:14;;;;;;;34.20;16.05;;;;;;;;;;5091255;28;20043;-75
2023/02/14 11:31:42;;;;;;;31.30;16.63;;;;;;;;;;5073700;28;20045;-72
2023/02/14 11:34:35;;;;;;;30.77;15.23;;;;;;;;;;5085226;28;20052;-76
2023/02/14 11:37:02;;;;;;;35.33;16.73;;;;;;;;;;5068633;28;20049;-75
2023/02/14 11:39:31;;;;;;;31.63;16.30;;;;;;;;;;5062355;28;20084;-73
2023/02/14 11:42:00;;;;;;;34.72;15.52;;;;;;;;;;5057790;28;20507;-73
2023/02/14 11:44:28;;;;;;;37.55;16.67;;;;;;;;;;5064594;28;20047;-73
2023/02/14 11:46:57;;;;;;;34.20;16.45;;;;;;;;;;5073754;28;20132;-76
2023/02/14 11:49:28;;;;;;;32.17;15.73;;;;;;;;;;5073672;28;20045;-72
2023/02/14 11:51:56;;;;;;;35.75;16.80;;;;;;;;;;5071547;28;20071;-73
2023/02/14 11:54:29;;;;;;;31.67;14.75;;;;;;;;;;5072939;28;20048;-73
2023/02/14 11:57:01;;;;;;;35.38;16.60;;;;;;;;;;5073178;28;20484;-73
2023/02/14 11:59:31;;;;;;;29.92;15.93;;;;;;;;;;5073632;28;20047;-72
2023/02/14 12:02:01;;;;;;;31.23;14.60;;;;;;;;;;5064381;28;20464;-72
2023/02/14 12:04:36;;;;;;;29.83;15.43;;;;;;;;;;5072571;28;20135;-72
2023/02/14 12:07:16;;;;;;;32.85;14.77;;;;;;;;;;5070341;28;20567;-72
2023/02/14 12:09:43;;;;;;;36.38;15.60;;;;;;;;;;5071865;28;20059;-72
2023/02/14 12:12:18;;;;;;;31.35;15.48;;;;;;;;;;5062191;28;20500;-72
2023/02/14 12:14:44;;;;;;;29.38;15.07;;;;;;;;;;5051965;28;20048;-72
2023/02/14 12:17:21;;;;;;;33.97;15.75;;;;;;;;;;5052087;28;20106;-72
2023/02/14 12:19:55;;;;;;;29.40;14.98;;;;;;;;;;5052959;28;20134;-72
2023/02/14 12:22:26;;;;;;;34.13;15.60;;;;;;;;;;5053078;28;20045;-73
2023/02/14 12:25:00;;;;;;;33.40;16.00;;;;;;;;;;5070450;28;20091;-72
2023/02/14 12:27:30;;;;;;;31.33;15.05;;;;;;;;;;5064825;28;20040;-72
2023/02/14 12:30:06;;;;;;;28.03;14.50;;;;;;;;;;5072589;28;20044;-73
2023/02/14 12:32:33;;;;;;;27.05;14.30;;;;;;;;;;5072492;28;20045;-76
2023/02/14 12:35:13;;;;;;;28.65;13.90;;;;;;;;;;5079428;28;20471;-76
2023/02/14 12:37:50;;;;;;;30.50;14.77;;;;;;;;;;5088292;28;20127;-76
2023/02/14 12:40:22;;;;;;;29.70;15.38;;;;;;;;;;5084056;28;20506;-76
2023/02/14 12:43:00;;;;;;;30.50;15.70;;;;;;;;;;5058239;28;20419;-75
2023/02/14 12:45:42;;;;;;;26.48;13.50;;;;;;;;;;5075535;28;20053;-71
2023/02/14 12:48:20;;;;;;;23.13;13.00;;;;;;;;;;5061875;28;20487;-71
2023/02/14 12:50:54;;;;;;;28.98;13.30;;;;;;;;;;5065993;28;20508;-71
2023/02/14 12:53:49;;;;;;;28.35;14.27;;;;;;;;;;5060086;28;20048;-71
2023/02/14 12:56:28;;;;;;;32.38;14.80;;;;;;;;;;5055321;28;20054;-73
2023/02/14 12:59:07;;;;;;;25.08;13.60;;;;;;;;;;5071508;28;20488;-72
2023/02/14 13:02:00;;;;;;;27.52;14.85;;;;;;;;;;5079982;28;20097;-73
2023/02/14 13:04:50;;;;;;;30.77;15.95;;;;;;;;;;5069974;28;20131;-72
2023/02/14 13:07:36;;;;;;;28.23;15.15;;;;;;;;;;5059342;28;20051;-72
2023/02/14 13:10:13;;;;;;;30.73;15.25;;;;;;;;;;5071314;28;20458;-72
2023/02/14 13:12:45;;;;;;;28.70;14.43;;;;;;;;;;5055259;28;20045;-72
2023/02/14 13:15:22;;;;;;;32.83;15.70;;;;;;;;;;5061039;28;20049;-72
2023/02/14 13:17:53;;;;;;;29.77;15.23;;;;;;;;;;5062034;28;20067;-71
2023/02/14 13:20:44;;;;;;;26.85;15.82;;;;;;;;;;5076158;28;20076;-71
2023/02/14 13:23:16;;;;;;;32.90;16.85;;;;;;;;;;5079010;28;20052;-71
2023/02/14 13:25:48;;;;;;;32.10;15.88;;;;;;;;;;5077898;28;20510;-72
2023/02/14 13:28:16;;;;;;;26.52;14.95;;;;;;;;;;5062389;28;20050;-72
2023/02/14 13:30:43;;;;;;;31.90;15.35;;;;;;;;;;5071681;28;20104;-71
2023/02/14 13:33:24;;;;;;;30.65;16.65;;;;;;;;;;5071434;28;20123;-72
2023/02/14 13:35:54;;;;;;;32.90;16.50;;;;;;;;;;5079232;28;20625;-70
2023/02/14 13:38:23;;;;;;;31.70;17.23;;;;;;;;;;5077734;28;20045;-72
2023/02/14 13:40:51;;;;;;;34.97;16.27;;;;;;;;;;5077195;28;20050;-72
2023/02/14 13:43:47;;;;;;;27.90;15.32;;;;;;;;;;5074086;28;20052;-71
2023/02/14 13:46:15;;;;;;;27.13;14.57;;;;;;;;;;5074128;28;20574;-72
2023/02/14 13:48:42;;;;;;;32.25;14.93;;;;;;;;;;5074052;28;20048;-72
2023/02/14 13:51:10;;;;;;;27.20;14.80;;;;;;;;;;5074699;28;20048;-72
2023/02/14 13:53:41;;;;;;;30.60;15.93;;;;;;;;;;5084126;28;20047;-73
2023/02/14 13:56:33;;;;;;;28.80;16.25;;;;;;;;;;5079947;28;20056;-71
2023/02/14 13:59:04;;;;;;;28.35;15.85;;;;;;;;;;5065922;28;20044;-72
2023/02/14 14:01:37;;;;;;;29.58;15.60;;;;;;;;;;5074382;28;20427;-73
2023/02/14 14:04:06;;;;;;;31.92;16.33;;;;;;;;;;5073507;28;20048;-71
2023/02/14 14:07:18;;;;;;;30.35;16.17;;;;;;;;;;5081353;28;20040;-71
2023/02/14 14:10:04;;;;;;;30.13;15.10;;;;;;;;;;4993879;28;20050;-72
2023/02/14 14:12:41;;;;;;;28.58;14.95;;;;;;;;;;5048023;28;20049;-70
2023/02/14 14:15:17;;;;;;;31.00;15.52;;;;;;;;;;5055172;28;20045;-72
2023/02/14 14:18:04;;;;;;;28.73;15.90;;;;;;;;;;5055529;28;20053;-72
2023/02/14 14:20:44;;;;;;;28.88;15.50;;;;;;;;;;5055298;28;20503;-70
2023/02/14 14:23:29;;;;;;;29.67;15.63;;;;;;;;;;5055332;28;20053;-72
2023/02/14 14:25:58;;;;;;;32.80;15.82;;;;;;;;;;5054790;28;20108;-70
2023/02/14 14:28:27;;;;;;;31.10;15.32;;;;;;;;;;5056009;28;20147;-73
2023/02/14 14:30:54;;;;;;;31.92;16.65;;;;;;;;;;5055423;28;20526;-71
2023/02/14 14:33:26;;;;;;;33.85;16.60;;;;;;;;;;5054254;28;20426;-72
2023/02/14 14:35:54;;;;;;;31.00;15.27;;;;;;;;;;5055705;28;20049;-72
2023/02/14 14:38:21;;;;;;;35.08;15.68;;;;;;;;;;5054752;28;20067;-73
2023/02/14 14:40:51;;;;;;;35.13;17.15;;;;;;;;;;5055133;28;20049;-72
2023/02/14 14:43:26;;;;;;;30.98;15.68;;;;;;;;;;5054894;28;20053;-72
2023/02/14 14:45:55;;;;;;;27.08;14.35;;;;;;;;;;5055203;28;20041;-71
2023/02/14 14:48:29;;;;;;;30.95;14.77;;;;;;;;;;5053965;28;20045;-71
2023/02/14 14:50:56;;;;;;;30.92;16.23;;;;;;;;;;5054349;28;20051;-72
2023/02/14 14:53:27;;;;;;;37.65;15.95;;;;;;;;;;5054059;28;20056;-72
2023/02/14 14:55:54;;;;;;;;;;;;;;;;;;5055345;28;20084;-72
2023/02/14 14:58:34;;;;;;;34.17;15.10;;;;;;;;;;5054804;28;19924;-72